sensor_id;sensor_type;location;lat;lon;timestamp;temperature;humidity
49184;DHT22;35021;49.214;12.270;2023-01-01T00:02:23;20.40;42.50
49184;DHT22;35021;49.214;12.270;2023-01-01T00:04:50;20.40;42.60
49184;DHT22;35021;49.214;12.270;2023-01-01T00:07:17;20.30;42.60
49184;DHT22;35021;49.214;12.270;2023-01-01T00:09:44;20.30;42.70
49184;DHT22;35021;49.214;12.270;2023-01-01T00:12:50;20.30;43.40
49184;DHT22;35021;49.214;12.270;2023-01-01T00:15:17;20.30;42.80
49184;DHT22;35021;49.214;12.270;2023-01-01T00:17:44;20.20;42.80
49184;DHT22;35021;49.214;12.270;2023-01-01T00:20:11;20.20;42.80
49184;DHT22;35021;49.214;12.270;2023-01-01T00:22:38;20.20;42.90
49184;DHT22;35021;49.214;12.270;2023-01-01T00:25:23;20.20;42.90
49184;DHT22;35021;49.214;12.270;2023-01-01T00:27:50;20.20;42.90
49184;DHT22;35021;49.214;12.270;2023-01-01T00:30:17;20.20;42.90
49184;DHT22;35021;49.214;12.270;2023-01-01T00:32:44;20.20;42.90
49184;DHT22;35021;49.214;12.270;2023-01-01T00:35:25;20.20;42.90
49184;DHT22;35021;49.214;12.270;2023-01-01T00:37:53;20.20;42.80
49184;DHT22;35021;49.214;12.270;2023-01-01T00:40:20;20.30;42.80
49184;DHT22;35021;49.214;12.270;2023-01-01T00:42:47;20.30;42.80
49184;DHT22;35021;49.214;12.270;2023-01-01T00:45:14;20.30;42.70
49184;DHT22;35021;49.214;12.270;2023-01-01T00:47:51;20.30;42.70
49184;DHT22;35021;49.214;12.270;2023-01-01T00:50:20;20.30;42.70
49184;DHT22;35021;49.214;12.270;2023-01-01T00:52:47;20.30;42.70
49184;DHT22;35021;49.214;12.270;2023-01-01T00:55:15;20.30;42.60
49184;DHT22;35021;49.214;12.270;2023-01-01T00:57:41;20.40;42.70
49184;DHT22;35021;49.214;12.270;2023-01-01T01:00:09;20.40;42.60
49184;DHT22;35021;49.214;12.270;2023-01-01T01:02:36;20.40;42.60
49184;DHT22;35021;49.214;12.270;2023-01-01T01:05:03;20.40;42.60
49184;DHT22;35021;49.214;12.270;2023-01-01T01:07:35;20.40;42.50
49184;DHT22;35021;49.214;12.270;2023-01-01T01:10:03;20.40;42.50
49184;DHT22;35021;49.214;12.270;2023-01-01T01:12:31;20.50;42.50
49184;DHT22;35021;49.214;12.270;2023-01-01T01:14:58;20.50;42.50
49184;DHT22;35021;49.214;12.270;2023-01-01T01:17:25;20.50;42.40
49184;DHT22;35021;49.214;12.270;2023-01-01T01:19:52;20.50;42.40
49184;DHT22;35021;49.214;12.270;2023-01-01T01:22:19;20.50;42.40
49184;DHT22;35021;49.214;12.270;2023-01-01T01:24:54;20.50;42.40
49184;DHT22;35021;49.214;12.270;2023-01-01T01:27:20;20.50;42.30
49184;DHT22;35021;49.214;12.270;2023-01-01T01:29:47;20.50;42.30
49184;DHT22;35021;49.214;12.270;2023-01-01T01:32:14;20.50;42.30
49184;DHT22;35021;49.214;12.270;2023-01-01T01:34:41;20.50;42.20
49184;DHT22;35021;49.214;12.270;2023-01-01T01:37:08;20.50;42.20
49184;DHT22;35021;49.214;12.270;2023-01-01T01:39:34;20.60;42.20
49184;DHT22;35021;49.214;12.270;2023-01-01T01:42:02;20.60;42.20
49184;DHT22;35021;49.214;12.270;2023-01-01T01:44:52;20.60;42.20
49184;DHT22;35021;49.214;12.270;2023-01-01T01:50:03;20.60;42.10
49184;DHT22;35021;49.214;12.270;2023-01-01T01:52:33;20.60;42.10
49184;DHT22;35021;49.214;12.270;2023-01-01T01:55:04;20.60;42.10
49184;DHT22;35021;49.214;12.270;2023-01-01T01:57:31;20.60;42.10
49184;DHT22;35021;49.214;12.270;2023-01-01T01:59:59;20.50;42.20
49184;DHT22;35021;49.214;12.270;2023-01-01T02:03:05;20.50;42.20
49184;DHT22;35021;49.214;12.270;2023-01-01T02:05:34;20.50;42.30
49184;DHT22;35021;49.214;12.270;2023-01-01T02:08:03;20.50;42.40
49184;DHT22;35021;49.214;12.270;2023-01-01T02:10:31;20.40;42.30
49184;DHT22;35021;49.214;12.270;2023-01-01T02:12:58;20.40;42.40
49184;DHT22;35021;49.214;12.270;2023-01-01T02:15:29;20.40;42.40
49184;DHT22;35021;49.214;12.270;2023-01-01T02:20:57;20.40;42.40
49184;DHT22;35021;49.214;12.270;2023-01-01T02:23:37;20.40;43.20
49184;DHT22;35021;49.214;12.270;2023-01-01T02:26:17;20.40;42.40
49184;DHT22;35021;49.214;12.270;2023-01-01T02:29:02;20.40;42.40
49184;DHT22;35021;49.214;12.270;2023-01-01T02:31:34;20.40;42.50
49184;DHT22;35021;49.214;12.270;2023-01-01T02:34:06;20.30;42.60
49184;DHT22;35021;49.214;12.270;2023-01-01T02:36:39;20.20;43.40
49184;DHT22;35021;49.214;12.270;2023-01-01T02:39:08;20.20;42.80
49184;DHT22;35021;49.214;12.270;2023-01-01T02:41:39;20.20;42.90
49184;DHT22;35021;49.214;12.270;2023-01-01T02:44:07;20.20;43.00
49184;DHT22;35021;49.214;12.270;2023-01-01T02:46:35;20.20;43.00
49184;DHT22;35021;49.214;12.270;2023-01-01T02:49:02;20.20;43.10
49184;DHT22;35021;49.214;12.270;2023-01-01T02:51:49;20.20;43.20
49184;DHT22;35021;49.214;12.270;2023-01-01T02:54:32;20.10;43.10
49184;DHT22;35021;49.214;12.270;2023-01-01T02:57:26;20.10;43.10
49184;DHT22;35021;49.214;12.270;2023-01-01T03:00:05;20.10;43.10
49184;DHT22;35021;49.214;12.270;2023-01-01T03:06:12;20.20;43.20
49184;DHT22;35021;49.214;12.270;2023-01-01T03:11:58;20.20;43.10
49184;DHT22;35021;49.214;12.270;2023-01-01T03:17:34;20.20;43.10
49184;DHT22;35021;49.214;12.270;2023-01-01T03:20:03;20.20;43.10
49184;DHT22;35021;49.214;12.270;2023-01-01T03:22:34;20.20;43.00
49184;DHT22;35021;49.214;12.270;2023-01-01T03:25:12;20.20;43.00
49184;DHT22;35021;49.214;12.270;2023-01-01T03:27:48;20.30;43.00
49184;DHT22;35021;49.214;12.270;2023-01-01T03:30:17;20.20;43.00
49184;DHT22;35021;49.214;12.270;2023-01-01T03:32:59;20.30;42.90
49184;DHT22;35021;49.214;12.270;2023-01-01T03:35:49;20.20;42.90
49184;DHT22;35021;49.214;12.270;2023-01-01T03:38:28;20.30;42.90
49184;DHT22;35021;49.214;12.270;2023-01-01T03:41:01;20.30;42.90
49184;DHT22;35021;49.214;12.270;2023-01-01T03:46:17;20.30;42.80
49184;DHT22;35021;49.214;12.270;2023-01-01T03:48:48;20.30;42.80
49184;DHT22;35021;49.214;12.270;2023-01-01T04:00:20;20.30;42.70
49184;DHT22;35021;49.214;12.270;2023-01-01T04:03:19;20.30;42.70
49184;DHT22;35021;49.214;12.270;2023-01-01T04:05:47;20.30;42.60
49184;DHT22;35021;49.214;12.270;2023-01-01T04:08:15;20.30;42.60
49184;DHT22;35021;49.214;12.270;2023-01-01T04:10:46;20.30;42.60
49184;DHT22;35021;49.214;12.270;2023-01-01T04:13:15;20.40;42.70
49184;DHT22;35021;49.214;12.270;2023-01-01T04:15:41;20.30;42.50
49184;DHT22;35021;49.214;12.270;2023-01-01T04:18:08;20.30;42.50
49184;DHT22;35021;49.214;12.270;2023-01-01T04:20:35;20.30;42.50
49184;DHT22;35021;49.214;12.270;2023-01-01T04:23:02;20.30;42.50
49184;DHT22;35021;49.214;12.270;2023-01-01T04:25:30;20.40;42.60
49184;DHT22;35021;49.214;12.270;2023-01-01T04:27:57;20.40;42.60
49184;DHT22;35021;49.214;12.270;2023-01-01T04:30:24;20.40;42.50
49184;DHT22;35021;49.214;12.270;2023-01-01T04:32:53;20.40;42.60
49184;DHT22;35021;49.214;12.270;2023-01-01T04:35:20;20.30;42.50
49184;DHT22;35021;49.214;12.270;2023-01-01T04:37:47;20.30;42.50
49184;DHT22;35021;49.214;12.270;2023-01-01T04:40:14;20.30;42.50
49184;DHT22;35021;49.214;12.270;2023-01-01T04:42:41;20.30;43.20
49184;DHT22;35021;49.214;12.270;2023-01-01T04:45:09;20.30;42.40
49184;DHT22;35021;49.214;12.270;2023-01-01T04:47:38;20.30;42.50
49184;DHT22;35021;49.214;12.270;2023-01-01T04:50:05;20.30;42.50
49184;DHT22;35021;49.214;12.270;2023-01-01T04:52:32;20.20;42.60
49184;DHT22;35021;49.214;12.270;2023-01-01T04:54:59;20.10;42.70
49184;DHT22;35021;49.214;12.270;2023-01-01T04:57:28;20.10;42.70
49184;DHT22;35021;49.214;12.270;2023-01-01T04:59:55;20.00;42.70
49184;DHT22;35021;49.214;12.270;2023-01-01T05:02:22;20.00;42.70
49184;DHT22;35021;49.214;12.270;2023-01-01T05:04:49;20.10;42.70
49184;DHT22;35021;49.214;12.270;2023-01-01T05:07:16;20.10;42.60
49184;DHT22;35021;49.214;12.270;2023-01-01T05:09:43;20.10;42.50
49184;DHT22;35021;49.214;12.270;2023-01-01T05:12:10;20.20;42.40
49184;DHT22;35021;49.214;12.270;2023-01-01T05:14:37;20.20;42.40
49184;DHT22;35021;49.214;12.270;2023-01-01T05:17:03;20.30;42.40
49184;DHT22;35021;49.214;12.270;2023-01-01T05:19:30;20.30;42.30
49184;DHT22;35021;49.214;12.270;2023-01-01T05:21:57;20.40;42.30
49184;DHT22;35021;49.214;12.270;2023-01-01T05:24:24;20.50;42.20
49184;DHT22;35021;49.214;12.270;2023-01-01T05:26:51;20.60;42.10
49184;DHT22;35021;49.214;12.270;2023-01-01T05:29:18;20.60;42.00
49184;DHT22;35021;49.214;12.270;2023-01-01T05:31:45;20.70;41.80
49184;DHT22;35021;49.214;12.270;2023-01-01T05:34:12;20.70;41.70
49184;DHT22;35021;49.214;12.270;2023-01-01T05:36:39;20.80;41.60
49184;DHT22;35021;49.214;12.270;2023-01-01T05:39:08;20.80;41.60
49184;DHT22;35021;49.214;12.270;2023-01-01T05:41:35;20.80;41.50
49184;DHT22;35021;49.214;12.270;2023-01-01T05:44:04;20.80;41.50
49184;DHT22;35021;49.214;12.270;2023-01-01T05:46:32;20.80;41.50
49184;DHT22;35021;49.214;12.270;2023-01-01T05:48:59;20.80;41.40
49184;DHT22;35021;49.214;12.270;2023-01-01T05:51:28;20.80;41.40
49184;DHT22;35021;49.214;12.270;2023-01-01T05:53:56;20.80;41.40
49184;DHT22;35021;49.214;12.270;2023-01-01T05:56:23;20.80;41.40
49184;DHT22;35021;49.214;12.270;2023-01-01T05:58:49;20.90;41.30
49184;DHT22;35021;49.214;12.270;2023-01-01T06:01:28;20.90;41.20
49184;DHT22;35021;49.214;12.270;2023-01-01T06:03:56;20.90;41.00
49184;DHT22;35021;49.214;12.270;2023-01-01T06:06:28;21.00;40.90
49184;DHT22;35021;49.214;12.270;2023-01-01T06:08:58;21.00;40.90
49184;DHT22;35021;49.214;12.270;2023-01-01T06:11:25;21.10;40.70
49184;DHT22;35021;49.214;12.270;2023-01-01T06:13:53;21.10;40.60
49184;DHT22;35021;49.214;12.270;2023-01-01T06:16:21;21.20;40.60
49184;DHT22;35021;49.214;12.270;2023-01-01T06:18:48;21.20;40.50
49184;DHT22;35021;49.214;12.270;2023-01-01T06:21:17;21.20;40.40
49184;DHT22;35021;49.214;12.270;2023-01-01T06:23:45;21.20;40.40
49184;DHT22;35021;49.214;12.270;2023-01-01T06:26:20;21.20;40.30
49184;DHT22;35021;49.214;12.270;2023-01-01T06:28:48;21.20;40.40
49184;DHT22;35021;49.214;12.270;2023-01-01T06:31:16;21.20;40.40
49184;DHT22;35021;49.214;12.270;2023-01-01T06:33:44;21.20;40.40
49184;DHT22;35021;49.214;12.270;2023-01-01T06:36:13;21.10;40.40
49184;DHT22;35021;49.214;12.270;2023-01-01T06:38:43;21.10;40.50
49184;DHT22;35021;49.214;12.270;2023-01-01T06:41:15;21.20;40.50
49184;DHT22;35021;49.214;12.270;2023-01-01T06:43:42;21.20;40.50
49184;DHT22;35021;49.214;12.270;2023-01-01T06:48:42;21.20;40.40
49184;DHT22;35021;49.214;12.270;2023-01-01T06:51:13;21.30;40.40
49184;DHT22;35021;49.214;12.270;2023-01-01T06:53:40;21.30;40.20
49184;DHT22;35021;49.214;12.270;2023-01-01T06:56:08;21.30;40.20
49184;DHT22;35021;49.214;12.270;2023-01-01T06:58:35;21.40;40.10
49184;DHT22;35021;49.214;12.270;2023-01-01T07:01:13;21.40;40.00
49184;DHT22;35021;49.214;12.270;2023-01-01T07:03:41;21.50;40.00
49184;DHT22;35021;49.214;12.270;2023-01-01T07:06:09;21.50;39.90
49184;DHT22;35021;49.214;12.270;2023-01-01T07:08:36;21.50;39.90
49184;DHT22;35021;49.214;12.270;2023-01-01T07:11:03;21.50;39.80
49184;DHT22;35021;49.214;12.270;2023-01-01T07:13:30;21.50;39.80
49184;DHT22;35021;49.214;12.270;2023-01-01T07:15:57;21.50;39.90
49184;DHT22;35021;49.214;12.270;2023-01-01T07:18:24;21.40;39.90
49184;DHT22;35021;49.214;12.270;2023-01-01T07:20:53;21.40;39.90
49184;DHT22;35021;49.214;12.270;2023-01-01T07:23:20;21.40;40.00
49184;DHT22;35021;49.214;12.270;2023-01-01T07:25:48;21.40;40.00
49184;DHT22;35021;49.214;12.270;2023-01-01T07:28:15;21.40;40.00
49184;DHT22;35021;49.214;12.270;2023-01-01T07:30:42;21.40;40.00
49184;DHT22;35021;49.214;12.270;2023-01-01T07:33:11;21.40;40.00
49184;DHT22;35021;49.214;12.270;2023-01-01T07:35:39;21.40;40.00
49184;DHT22;35021;49.214;12.270;2023-01-01T07:38:07;21.40;40.00
49184;DHT22;35021;49.214;12.270;2023-01-01T07:40:33;21.30;39.90
49184;DHT22;35021;49.214;12.270;2023-01-01T07:43:00;21.40;40.00
49184;DHT22;35021;49.214;12.270;2023-01-01T07:45:27;21.30;39.90
49184;DHT22;35021;49.214;12.270;2023-01-01T07:47:56;21.40;39.90
49184;DHT22;35021;49.214;12.270;2023-01-01T07:50:24;21.40;39.90
49184;DHT22;35021;49.214;12.270;2023-01-01T07:52:51;21.40;39.80
49184;DHT22;35021;49.214;12.270;2023-01-01T07:55:19;21.40;39.80
49184;DHT22;35021;49.214;12.270;2023-01-01T07:57:47;21.40;39.80
49184;DHT22;35021;49.214;12.270;2023-01-01T08:00:16;21.40;39.80
49184;DHT22;35021;49.214;12.270;2023-01-01T08:02:44;21.40;39.80
49184;DHT22;35021;49.214;12.270;2023-01-01T08:05:11;21.40;39.90
49184;DHT22;35021;49.214;12.270;2023-01-01T08:07:38;21.30;39.90
49184;DHT22;35021;49.214;12.270;2023-01-01T08:10:05;21.30;39.90
49184;DHT22;35021;49.214;12.270;2023-01-01T08:12:33;21.30;40.00
49184;DHT22;35021;49.214;12.270;2023-01-01T08:14:59;21.30;39.90
49184;DHT22;35021;49.214;12.270;2023-01-01T08:17:26;21.20;39.90
49184;DHT22;35021;49.214;12.270;2023-01-01T08:19:53;21.20;39.90
49184;DHT22;35021;49.214;12.270;2023-01-01T08:22:20;21.30;40.00
49184;DHT22;35021;49.214;12.270;2023-01-01T08:24:47;21.30;39.90
49184;DHT22;35021;49.214;12.270;2023-01-01T08:27:14;21.30;39.90
49184;DHT22;35021;49.214;12.270;2023-01-01T08:29:43;21.30;39.90
49184;DHT22;35021;49.214;12.270;2023-01-01T08:32:10;21.30;39.80
49184;DHT22;35021;49.214;12.270;2023-01-01T08:34:37;21.30;39.80
49184;DHT22;35021;49.214;12.270;2023-01-01T08:37:05;21.40;39.80
49184;DHT22;35021;49.214;12.270;2023-01-01T08:39:32;21.40;39.80
49184;DHT22;35021;49.214;12.270;2023-01-01T08:41:58;21.40;39.80
49184;DHT22;35021;49.214;12.270;2023-01-01T08:44:25;21.40;39.80
49184;DHT22;35021;49.214;12.270;2023-01-01T08:46:52;21.30;39.80
49184;DHT22;35021;49.214;12.270;2023-01-01T08:49:19;21.30;39.90
49184;DHT22;35021;49.214;12.270;2023-01-01T08:51:46;21.20;40.00
49184;DHT22;35021;49.214;12.270;2023-01-01T08:54:12;21.20;40.10
49184;DHT22;35021;49.214;12.270;2023-01-01T08:56:39;21.20;40.10
49184;DHT22;35021;49.214;12.270;2023-01-01T08:59:06;21.20;40.10
49184;DHT22;35021;49.214;12.270;2023-01-01T09:01:33;21.20;40.10
49184;DHT22;35021;49.214;12.270;2023-01-01T09:04:00;21.30;40.00
49184;DHT22;35021;49.214;12.270;2023-01-01T09:06:26;21.30;39.90
49184;DHT22;35021;49.214;12.270;2023-01-01T09:08:53;21.30;39.80
49184;DHT22;35021;49.214;12.270;2023-01-01T09:11:23;21.30;39.80
49184;DHT22;35021;49.214;12.270;2023-01-01T09:13:51;21.30;39.80
49184;DHT22;35021;49.214;12.270;2023-01-01T09:16:19;21.30;39.80
49184;DHT22;35021;49.214;12.270;2023-01-01T09:18:46;21.30;39.80
49184;DHT22;35021;49.214;12.270;2023-01-01T09:21:12;21.30;39.90
49184;DHT22;35021;49.214;12.270;2023-01-01T09:23:40;21.30;39.90
49184;DHT22;35021;49.214;12.270;2023-01-01T09:26:08;21.30;40.00
49184;DHT22;35021;49.214;12.270;2023-01-01T09:28:36;21.30;40.00
49184;DHT22;35021;49.214;12.270;2023-01-01T09:31:04;21.30;40.10
49184;DHT22;35021;49.214;12.270;2023-01-01T09:33:32;21.20;40.10
49184;DHT22;35021;49.214;12.270;2023-01-01T09:36:32;21.20;40.20
49184;DHT22;35021;49.214;12.270;2023-01-01T09:39:00;21.10;40.40
49184;DHT22;35021;49.214;12.270;2023-01-01T09:44:15;21.10;40.50
49184;DHT22;35021;49.214;12.270;2023-01-01T09:46:47;21.10;40.50
49184;DHT22;35021;49.214;12.270;2023-01-01T09:49:20;21.10;40.60
49184;DHT22;35021;49.214;12.270;2023-01-01T09:51:53;21.10;40.50
49184;DHT22;35021;49.214;12.270;2023-01-01T09:54:46;21.10;40.50
49184;DHT22;35021;49.214;12.270;2023-01-01T09:57:15;21.20;40.50
49184;DHT22;35021;49.214;12.270;2023-01-01T09:59:46;21.20;40.50
49184;DHT22;35021;49.214;12.270;2023-01-01T10:07:28;21.20;40.40
49184;DHT22;35021;49.214;12.270;2023-01-01T10:12:43;21.30;40.40
49184;DHT22;35021;49.214;12.270;2023-01-01T10:17:44;21.40;40.50
49184;DHT22;35021;49.214;12.270;2023-01-01T10:20:25;21.40;40.50
49184;DHT22;35021;49.214;12.270;2023-01-01T10:23:00;21.50;40.60
49184;DHT22;35021;49.214;12.270;2023-01-01T10:25:31;21.50;40.60
49184;DHT22;35021;49.214;12.270;2023-01-01T10:28:06;21.50;40.70
49184;DHT22;35021;49.214;12.270;2023-01-01T10:30:36;21.60;40.70
49184;DHT22;35021;49.214;12.270;2023-01-01T10:33:09;21.60;40.60
49184;DHT22;35021;49.214;12.270;2023-01-01T10:35:44;21.70;40.60
49184;DHT22;35021;49.214;12.270;2023-01-01T10:38:24;21.70;41.20
49184;DHT22;35021;49.214;12.270;2023-01-01T10:40:54;21.80;40.50
49184;DHT22;35021;49.214;12.270;2023-01-01T10:43:22;21.90;40.50
49184;DHT22;35021;49.214;12.270;2023-01-01T10:45:52;21.90;40.40
49184;DHT22;35021;49.214;12.270;2023-01-01T10:48:24;22.00;40.40
49184;DHT22;35021;49.214;12.270;2023-01-01T10:51:02;22.00;40.40
49184;DHT22;35021;49.214;12.270;2023-01-01T10:53:31;22.10;40.40
49184;DHT22;35021;49.214;12.270;2023-01-01T10:55:59;22.10;40.40
49184;DHT22;35021;49.214;12.270;2023-01-01T11:01:01;22.20;40.60
49184;DHT22;35021;49.214;12.270;2023-01-01T11:03:28;22.20;40.60
49184;DHT22;35021;49.214;12.270;2023-01-01T11:08:59;22.30;40.60
49184;DHT22;35021;49.214;12.270;2023-01-01T11:11:41;22.40;40.60
49184;DHT22;35021;49.214;12.270;2023-01-01T11:14:19;22.40;40.40
49184;DHT22;35021;49.214;12.270;2023-01-01T11:16:48;22.50;40.40
49184;DHT22;35021;49.214;12.270;2023-01-01T11:19:28;22.50;40.40
49184;DHT22;35021;49.214;12.270;2023-01-01T11:21:56;22.50;40.40
49184;DHT22;35021;49.214;12.270;2023-01-01T11:24:28;22.50;40.40
49184;DHT22;35021;49.214;12.270;2023-01-01T11:27:12;22.40;40.40
49184;DHT22;35021;49.214;12.270;2023-01-01T11:29:39;22.50;40.50
49184;DHT22;35021;49.214;12.270;2023-01-01T11:32:07;22.40;40.60
49184;DHT22;35021;49.214;12.270;2023-01-01T11:34:35;22.30;40.80
49184;DHT22;35021;49.214;12.270;2023-01-01T11:37:07;22.30;40.80
49184;DHT22;35021;49.214;12.270;2023-01-01T11:39:35;22.20;40.80
49184;DHT22;35021;49.214;12.270;2023-01-01T11:42:04;22.20;40.90
49184;DHT22;35021;49.214;12.270;2023-01-01T11:44:35;22.10;41.00
49184;DHT22;35021;49.214;12.270;2023-01-01T11:47:04;22.10;41.00
49184;DHT22;35021;49.214;12.270;2023-01-01T11:49:32;22.10;41.20
49184;DHT22;35021;49.214;12.270;2023-01-01T11:51:59;22.00;41.20
49184;DHT22;35021;49.214;12.270;2023-01-01T11:54:33;22.00;41.30
49184;DHT22;35021;49.214;12.270;2023-01-01T11:57:13;22.00;41.30
49184;DHT22;35021;49.214;12.270;2023-01-01T11:59:48;21.90;41.40
49184;DHT22;35021;49.214;12.270;2023-01-01T12:02:23;21.90;41.50
49184;DHT22;35021;49.214;12.270;2023-01-01T12:05:04;21.80;41.40
49184;DHT22;35021;49.214;12.270;2023-01-01T12:07:35;21.80;41.50
49184;DHT22;35021;49.214;12.270;2023-01-01T12:10:12;21.80;41.60
49184;DHT22;35021;49.214;12.270;2023-01-01T12:13:17;21.80;41.60
49184;DHT22;35021;49.214;12.270;2023-01-01T12:18:26;21.80;41.60
49184;DHT22;35021;49.214;12.270;2023-01-01T12:21:13;21.80;41.70
49184;DHT22;35021;49.214;12.270;2023-01-01T12:23:41;21.80;41.60
49184;DHT22;35021;49.214;12.270;2023-01-01T12:29:08;21.90;41.40
49184;DHT22;35021;49.214;12.270;2023-01-01T12:34:33;22.10;41.10
49184;DHT22;35021;49.214;12.270;2023-01-01T12:37:49;22.20;41.00
49184;DHT22;35021;49.214;12.270;2023-01-01T12:56:48;22.30;40.60
49184;DHT22;35021;49.214;12.270;2023-01-01T12:59:45;22.30;40.70
49184;DHT22;35021;49.214;12.270;2023-01-01T13:02:22;22.20;40.80
49184;DHT22;35021;49.214;12.270;2023-01-01T13:04:52;22.10;40.90
49184;DHT22;35021;49.214;12.270;2023-01-01T13:07:30;22.10;41.00
49184;DHT22;35021;49.214;12.270;2023-01-01T13:12:47;22.00;41.10
49184;DHT22;35021;49.214;12.270;2023-01-01T13:18:03;21.90;41.40
49184;DHT22;35021;49.214;12.270;2023-01-01T13:20:32;21.90;41.40
49184;DHT22;35021;49.214;12.270;2023-01-01T13:23:01;21.80;41.40
49184;DHT22;35021;49.214;12.270;2023-01-01T13:25:28;21.80;41.50
49184;DHT22;35021;49.214;12.270;2023-01-01T13:46:48;21.60;42.00
49184;DHT22;35021;49.214;12.270;2023-01-01T13:49:26;21.60;42.10
49184;DHT22;35021;49.214;12.270;2023-01-01T13:52:09;21.60;42.20
49184;DHT22;35021;49.214;12.270;2023-01-01T14:00:23;21.50;42.10
49184;DHT22;35021;49.214;12.270;2023-01-01T14:02:57;21.50;42.10
49184;DHT22;35021;49.214;12.270;2023-01-01T14:07:58;21.50;42.10
49184;DHT22;35021;49.214;12.270;2023-01-01T14:10:29;21.50;42.10
49184;DHT22;35021;49.214;12.270;2023-01-01T14:13:15;21.40;42.00
49184;DHT22;35021;49.214;12.270;2023-01-01T14:18:19;21.40;42.00
49184;DHT22;35021;49.214;12.270;2023-01-01T14:20:51;21.40;42.00
49184;DHT22;35021;49.214;12.270;2023-01-01T14:23:38;21.40;41.90
49184;DHT22;35021;49.214;12.270;2023-01-01T14:26:11;21.40;41.90
49184;DHT22;35021;49.214;12.270;2023-01-01T14:28:39;21.50;41.90
49184;DHT22;35021;49.214;12.270;2023-01-01T14:31:15;21.50;41.80
49184;DHT22;35021;49.214;12.270;2023-01-01T14:33:44;21.50;41.80
49184;DHT22;35021;49.214;12.270;2023-01-01T14:36:22;21.50;41.80
49184;DHT22;35021;49.214;12.270;2023-01-01T14:38:52;21.50;41.70
49184;DHT22;35021;49.214;12.270;2023-01-01T14:44:04;21.50;41.70
49184;DHT22;35021;49.214;12.270;2023-01-01T14:46:32;21.50;41.60
49184;DHT22;35021;49.214;12.270;2023-01-01T14:49:06;21.50;41.60
49184;DHT22;35021;49.214;12.270;2023-01-01T14:51:34;21.50;41.60
49184;DHT22;35021;49.214;12.270;2023-01-01T14:54:15;21.50;41.60
49184;DHT22;35021;49.214;12.270;2023-01-01T14:56:46;21.50;41.60
49184;DHT22;35021;49.214;12.270;2023-01-01T14:59:28;21.50;41.40
49184;DHT22;35021;49.214;12.270;2023-01-01T15:02:41;21.50;41.50
49184;DHT22;35021;49.214;12.270;2023-01-01T15:04:50;21.40;41.50
49184;DHT22;35021;49.214;12.270;2023-01-01T15:07:28;21.40;41.70
49184;DHT22;35021;49.214;12.270;2023-01-01T15:09:57;21.30;41.80
49184;DHT22;35021;49.214;12.270;2023-01-01T15:12:33;21.30;41.90
49184;DHT22;35021;49.214;12.270;2023-01-01T15:15:00;21.20;41.90
49184;DHT22;35021;49.214;12.270;2023-01-01T15:17:27;21.20;42.00
49184;DHT22;35021;49.214;12.270;2023-01-01T15:20:22;21.10;42.00
49184;DHT22;35021;49.214;12.270;2023-01-01T15:22:50;21.10;42.10
49184;DHT22;35021;49.214;12.270;2023-01-01T15:25:18;21.00;42.20
49184;DHT22;35021;49.214;12.270;2023-01-01T15:27:51;21.00;42.30
49184;DHT22;35021;49.214;12.270;2023-01-01T15:30:24;20.90;42.30
49184;DHT22;35021;49.214;12.270;2023-01-01T15:32:51;20.90;42.40
49184;DHT22;35021;49.214;12.270;2023-01-01T15:35:32;20.80;42.40
49184;DHT22;35021;49.214;12.270;2023-01-01T15:38:28;20.80;42.50
49184;DHT22;35021;49.214;12.270;2023-01-01T15:40:56;20.80;42.50
49184;DHT22;35021;49.214;12.270;2023-01-01T15:43:26;20.80;42.40
49184;DHT22;35021;49.214;12.270;2023-01-01T15:46:09;20.80;42.40
49184;DHT22;35021;49.214;12.270;2023-01-01T15:48:46;20.80;42.40
49184;DHT22;35021;49.214;12.270;2023-01-01T15:51:24;20.80;42.40
49184;DHT22;35021;49.214;12.270;2023-01-01T15:53:58;20.80;42.30
49184;DHT22;35021;49.214;12.270;2023-01-01T15:56:30;20.80;42.20
49184;DHT22;35021;49.214;12.270;2023-01-01T15:59:03;20.80;42.20
49184;DHT22;35021;49.214;12.270;2023-01-01T16:01:37;20.80;42.10
49184;DHT22;35021;49.214;12.270;2023-01-01T16:04:14;20.80;42.10
49184;DHT22;35021;49.214;12.270;2023-01-01T16:06:47;20.90;42.10
49184;DHT22;35021;49.214;12.270;2023-01-01T16:09:15;20.90;42.00
49184;DHT22;35021;49.214;12.270;2023-01-01T16:11:43;20.90;42.00
49184;DHT22;35021;49.214;12.270;2023-01-01T16:14:10;20.90;41.90
49184;DHT22;35021;49.214;12.270;2023-01-01T16:16:38;20.80;41.90
49184;DHT22;35021;49.214;12.270;2023-01-01T16:19:13;20.80;42.00
49184;DHT22;35021;49.214;12.270;2023-01-01T16:21:41;20.80;42.00
49184;DHT22;35021;49.214;12.270;2023-01-01T16:24:16;20.70;42.00
49184;DHT22;35021;49.214;12.270;2023-01-01T16:26:44;20.70;42.00
49184;DHT22;35021;49.214;12.270;2023-01-01T16:29:11;20.70;42.00
49184;DHT22;35021;49.214;12.270;2023-01-01T16:31:38;20.70;42.00
49184;DHT22;35021;49.214;12.270;2023-01-01T16:34:06;20.70;42.00
49184;DHT22;35021;49.214;12.270;2023-01-01T16:36:33;20.70;42.00
49184;DHT22;35021;49.214;12.270;2023-01-01T16:39:00;20.70;41.90
49184;DHT22;35021;49.214;12.270;2023-01-01T16:41:27;20.70;41.80
49184;DHT22;35021;49.214;12.270;2023-01-01T16:43:56;20.70;41.80
49184;DHT22;35021;49.214;12.270;2023-01-01T16:46:23;20.70;41.80
49184;DHT22;35021;49.214;12.270;2023-01-01T16:48:52;20.70;41.70
49184;DHT22;35021;49.214;12.270;2023-01-01T16:51:26;20.70;41.70
49184;DHT22;35021;49.214;12.270;2023-01-01T16:53:53;20.70;41.70
49184;DHT22;35021;49.214;12.270;2023-01-01T16:56:20;20.70;41.60
49184;DHT22;35021;49.214;12.270;2023-01-01T16:58:48;20.70;41.60
49184;DHT22;35021;49.214;12.270;2023-01-01T17:01:20;20.70;41.60
49184;DHT22;35021;49.214;12.270;2023-01-01T17:03:47;20.80;41.50
49184;DHT22;35021;49.214;12.270;2023-01-01T17:06:15;20.80;41.40
49184;DHT22;35021;49.214;12.270;2023-01-01T17:08:41;20.90;41.40
49184;DHT22;35021;49.214;12.270;2023-01-01T17:11:11;20.90;41.20
49184;DHT22;35021;49.214;12.270;2023-01-01T17:13:41;21.00;41.10
49184;DHT22;35021;49.214;12.270;2023-01-01T17:16:10;21.10;40.90
49184;DHT22;35021;49.214;12.270;2023-01-01T17:18:37;21.10;40.80
49184;DHT22;35021;49.214;12.270;2023-01-01T17:21:24;21.20;40.80
49184;DHT22;35021;49.214;12.270;2023-01-01T17:23:52;21.20;40.60
49184;DHT22;35021;49.214;12.270;2023-01-01T17:26:21;21.30;40.60
49184;DHT22;35021;49.214;12.270;2023-01-01T17:28:49;21.30;40.40
49184;DHT22;35021;49.214;12.270;2023-01-01T17:31:25;21.40;40.40